sensor_id;sensor_type;location;lat;lon;timestamp;P1;durP1;ratioP1;P2;durP2;ratioP2
70953;SDS011;58618;47.490;8.736;2023-04-07T00:00:41;2.10;;;1.43;;
70953;SDS011;58618;47.490;8.736;2023-04-07T00:03:29;3.55;;;1.75;;
70953;SDS011;58618;47.490;8.736;2023-04-07T00:06:18;3.42;;;1.40;;
70953;SDS011;58618;47.490;8.736;2023-04-07T00:09:05;2.17;;;1.40;;
70953;SDS011;58618;47.490;8.736;2023-04-07T00:11:52;3.05;;;1.35;;
70953;SDS011;58618;47.490;8.736;2023-04-07T00:14:41;2.37;;;1.33;;
70953;SDS011;58618;47.490;8.736;2023-04-07T00:17:28;3.58;;;1.73;;
70953;SDS011;58618;47.490;8.736;2023-04-07T00:20:15;2.45;;;1.45;;
70953;SDS011;58618;47.490;8.736;2023-04-07T00:23:04;2.30;;;1.40;;
70953;SDS011;58618;47.490;8.736;2023-04-07T00:25:51;4.60;;;1.40;;
70953;SDS011;58618;47.490;8.736;2023-04-07T00:28:39;1.90;;;1.37;;
70953;SDS011;58618;47.490;8.736;2023-04-07T00:31:26;4.15;;;1.80;;
70953;SDS011;58618;47.490;8.736;2023-04-07T00:34:13;3.05;;;1.50;;
70953;SDS011;58618;47.490;8.736;2023-04-07T00:37:01;3.20;;;1.30;;
70953;SDS011;58618;47.490;8.736;2023-04-07T00:39:49;1.60;;;1.27;;
70953;SDS011;58618;47.490;8.736;2023-04-07T00:42:37;2.47;;;1.40;;
70953;SDS011;58618;47.490;8.736;2023-04-07T00:45:24;2.70;;;1.10;;
70953;SDS011;58618;47.490;8.736;2023-04-07T00:48:11;1.67;;;1.15;;
70953;SDS011;58618;47.490;8.736;2023-04-07T00:50:59;2.53;;;1.50;;
70953;SDS011;58618;47.490;8.736;2023-04-07T00:53:46;2.15;;;1.45;;
70953;SDS011;58618;47.490;8.736;2023-04-07T00:56:35;1.93;;;1.20;;
70953;SDS011;58618;47.490;8.736;2023-04-07T00:59:23;2.92;;;1.40;;
70953;SDS011;58618;47.490;8.736;2023-04-07T01:02:14;2.15;;;1.20;;
70953;SDS011;58618;47.490;8.736;2023-04-07T01:05:06;2.67;;;1.40;;
70953;SDS011;58618;47.490;8.736;2023-04-07T01:08:00;3.00;;;1.48;;
70953;SDS011;58618;47.490;8.736;2023-04-07T01:10:55;1.97;;;1.20;;
70953;SDS011;58618;47.490;8.736;2023-04-07T01:13:50;2.53;;;1.40;;
70953;SDS011;58618;47.490;8.736;2023-04-07T01:16:40;3.20;;;1.40;;
70953;SDS011;58618;47.490;8.736;2023-04-07T01:19:32;2.13;;;1.25;;
70953;SDS011;58618;47.490;8.736;2023-04-07T01:22:23;2.28;;;1.40;;
70953;SDS011;58618;47.490;8.736;2023-04-07T01:25:21;2.10;;;1.17;;
70953;SDS011;58618;47.490;8.736;2023-04-07T01:28:15;2.05;;;1.23;;
70953;SDS011;58618;47.490;8.736;2023-04-07T01:31:28;2.30;;;1.30;;
70953;SDS011;58618;47.490;8.736;2023-04-07T01:34:16;3.35;;;1.30;;
70953;SDS011;58618;47.490;8.736;2023-04-07T01:37:05;2.17;;;1.52;;
70953;SDS011;58618;47.490;8.736;2023-04-07T01:39:54;2.70;;;1.50;;
70953;SDS011;58618;47.490;8.736;2023-04-07T01:42:41;2.22;;;1.35;;
70953;SDS011;58618;47.490;8.736;2023-04-07T01:45:30;2.22;;;1.30;;
70953;SDS011;58618;47.490;8.736;2023-04-07T01:48:21;2.00;;;1.45;;
70953;SDS011;58618;47.490;8.736;2023-04-07T01:51:09;2.72;;;1.50;;
70953;SDS011;58618;47.490;8.736;2023-04-07T01:54:02;4.00;;;1.30;;
70953;SDS011;58618;47.490;8.736;2023-04-07T01:56:51;2.28;;;1.30;;
70953;SDS011;58618;47.490;8.736;2023-04-07T01:59:38;3.28;;;1.63;;
70953;SDS011;58618;47.490;8.736;2023-04-07T02:02:25;3.15;;;1.90;;
70953;SDS011;58618;47.490;8.736;2023-04-07T02:05:17;3.13;;;1.17;;
70953;SDS011;58618;47.490;8.736;2023-04-07T02:08:07;2.73;;;1.40;;
70953;SDS011;58618;47.490;8.736;2023-04-07T02:10:57;1.98;;;1.30;;
70953;SDS011;58618;47.490;8.736;2023-04-07T02:13:48;1.63;;;1.20;;
70953;SDS011;58618;47.490;8.736;2023-04-07T02:16:38;3.80;;;1.30;;
70953;SDS011;58618;47.490;8.736;2023-04-07T02:19:27;2.95;;;1.50;;
70953;SDS011;58618;47.490;8.736;2023-04-07T02:22:17;1.87;;;1.33;;
70953;SDS011;58618;47.490;8.736;2023-04-07T02:25:19;2.55;;;1.40;;
70953;SDS011;58618;47.490;8.736;2023-04-07T02:28:07;2.97;;;1.30;;
70953;SDS011;58618;47.490;8.736;2023-04-07T02:30:55;1.77;;;1.20;;
70953;SDS011;58618;47.490;8.736;2023-04-07T02:33:42;1.90;;;1.10;;
70953;SDS011;58618;47.490;8.736;2023-04-07T02:36:30;1.37;;;1.03;;
70953;SDS011;58618;47.490;8.736;2023-04-07T02:39:25;2.70;;;1.33;;
70953;SDS011;58618;47.490;8.736;2023-04-07T02:42:23;2.63;;;1.25;;
70953;SDS011;58618;47.490;8.736;2023-04-07T02:45:11;2.30;;;1.10;;
70953;SDS011;58618;47.490;8.736;2023-04-07T02:47:58;2.25;;;1.27;;
70953;SDS011;58618;47.490;8.736;2023-04-07T02:50:46;1.63;;;1.30;;
70953;SDS011;58618;47.490;8.736;2023-04-07T02:53:33;1.58;;;1.10;;
70953;SDS011;58618;47.490;8.736;2023-04-07T02:56:22;1.58;;;1.13;;
70953;SDS011;58618;47.490;8.736;2023-04-07T02:59:09;2.15;;;1.30;;
70953;SDS011;58618;47.490;8.736;2023-04-07T03:01:57;1.77;;;1.10;;
70953;SDS011;58618;47.490;8.736;2023-04-07T03:04:44;2.47;;;1.20;;
70953;SDS011;58618;47.490;8.736;2023-04-07T03:07:32;1.88;;;1.05;;
70953;SDS011;58618;47.490;8.736;2023-04-07T03:10:19;1.40;;;0.90;;
70953;SDS011;58618;47.490;8.736;2023-04-07T03:13:08;1.95;;;0.90;;
70953;SDS011;58618;47.490;8.736;2023-04-07T03:15:57;2.08;;;1.20;;
70953;SDS011;58618;47.490;8.736;2023-04-07T03:18:44;1.97;;;1.17;;
70953;SDS011;58618;47.490;8.736;2023-04-07T03:21:32;2.38;;;1.05;;
70953;SDS011;58618;47.490;8.736;2023-04-07T03:24:19;1.38;;;0.90;;
70953;SDS011;58618;47.490;8.736;2023-04-07T03:27:07;1.55;;;1.20;;
70953;SDS011;58618;47.490;8.736;2023-04-07T03:29:55;1.77;;;1.08;;
70953;SDS011;58618;47.490;8.736;2023-04-07T03:32:43;6.63;;;1.40;;
70953;SDS011;58618;47.490;8.736;2023-04-07T03:35:30;2.85;;;1.50;;
70953;SDS011;58618;47.490;8.736;2023-04-07T03:38:18;2.13;;;1.10;;
70953;SDS011;58618;47.490;8.736;2023-04-07T03:41:06;2.22;;;1.13;;
70953;SDS011;58618;47.490;8.736;2023-04-07T03:43:53;1.08;;;0.85;;
70953;SDS011;58618;47.490;8.736;2023-04-07T03:46:43;1.63;;;1.13;;
70953;SDS011;58618;47.490;8.736;2023-04-07T03:49:32;2.47;;;1.33;;
70953;SDS011;58618;47.490;8.736;2023-04-07T03:52:22;2.90;;;1.50;;
70953;SDS011;58618;47.490;8.736;2023-04-07T03:55:09;2.90;;;1.40;;
70953;SDS011;58618;47.490;8.736;2023-04-07T03:57:57;2.25;;;1.30;;
70953;SDS011;58618;47.490;8.736;2023-04-07T04:00:54;2.13;;;1.50;;
70953;SDS011;58618;47.490;8.736;2023-04-07T04:03:45;1.60;;;1.20;;
70953;SDS011;58618;47.490;8.736;2023-04-07T04:06:33;2.42;;;1.40;;
70953;SDS011;58618;47.490;8.736;2023-04-07T04:09:20;3.55;;;1.50;;
70953;SDS011;58618;47.490;8.736;2023-04-07T04:12:07;2.08;;;1.30;;
70953;SDS011;58618;47.490;8.736;2023-04-07T04:14:55;1.93;;;1.20;;
70953;SDS011;58618;47.490;8.736;2023-04-07T04:17:42;2.28;;;1.30;;
70953;SDS011;58618;47.490;8.736;2023-04-07T04:20:31;2.75;;;1.40;;
70953;SDS011;58618;47.490;8.736;2023-04-07T04:23:18;2.47;;;1.60;;
70953;SDS011;58618;47.490;8.736;2023-04-07T04:26:06;2.85;;;1.70;;
70953;SDS011;58618;47.490;8.736;2023-04-07T04:28:53;2.27;;;1.20;;
70953;SDS011;58618;47.490;8.736;2023-04-07T04:31:41;6.82;;;1.30;;
70953;SDS011;58618;47.490;8.736;2023-04-07T04:34:28;3.42;;;1.38;;
70953;SDS011;58618;47.490;8.736;2023-04-07T04:37:17;1.80;;;1.30;;
70953;SDS011;58618;47.490;8.736;2023-04-07T04:40:05;1.48;;;1.30;;
70953;SDS011;58618;47.490;8.736;2023-04-07T04:42:54;1.47;;;1.07;;
70953;SDS011;58618;47.490;8.736;2023-04-07T04:45:41;2.30;;;1.48;;
70953;SDS011;58618;47.490;8.736;2023-04-07T04:48:29;2.25;;;1.48;;
70953;SDS011;58618;47.490;8.736;2023-04-07T04:51:16;2.08;;;1.33;;
70953;SDS011;58618;47.490;8.736;2023-04-07T04:54:05;3.67;;;1.60;;
70953;SDS011;58618;47.490;8.736;2023-04-07T04:56:52;2.67;;;1.57;;
70953;SDS011;58618;47.490;8.736;2023-04-07T04:59:42;1.98;;;1.00;;
70953;SDS011;58618;47.490;8.736;2023-04-07T05:02:29;2.47;;;1.17;;
70953;SDS011;58618;47.490;8.736;2023-04-07T05:05:16;2.17;;;1.27;;
70953;SDS011;58618;47.490;8.736;2023-04-07T05:08:04;2.17;;;1.48;;
70953;SDS011;58618;47.490;8.736;2023-04-07T05:10:53;2.83;;;1.57;;
70953;SDS011;58618;47.490;8.736;2023-04-07T05:13:41;2.67;;;1.20;;
70953;SDS011;58618;47.490;8.736;2023-04-07T05:16:28;1.95;;;1.23;;
70953;SDS011;58618;47.490;8.736;2023-04-07T05:19:16;2.15;;;1.23;;
70953;SDS011;58618;47.490;8.736;2023-04-07T05:22:03;3.70;;;1.63;;
70953;SDS011;58618;47.490;8.736;2023-04-07T05:24:50;1.47;;;1.20;;
70953;SDS011;58618;47.490;8.736;2023-04-07T05:27:39;4.15;;;1.20;;
70953;SDS011;58618;47.490;8.736;2023-04-07T05:30:26;3.03;;;1.50;;
70953;SDS011;58618;47.490;8.736;2023-04-07T05:33:14;2.03;;;1.20;;
70953;SDS011;58618;47.490;8.736;2023-04-07T05:36:01;1.73;;;1.20;;
70953;SDS011;58618;47.490;8.736;2023-04-07T05:38:49;6.90;;;1.47;;
70953;SDS011;58618;47.490;8.736;2023-04-07T05:41:37;1.75;;;1.13;;
70953;SDS011;58618;47.490;8.736;2023-04-07T05:44:26;2.58;;;1.50;;
70953;SDS011;58618;47.490;8.736;2023-04-07T05:47:14;2.10;;;1.27;;
70953;SDS011;58618;47.490;8.736;2023-04-07T05:50:02;2.85;;;1.40;;
70953;SDS011;58618;47.490;8.736;2023-04-07T05:52:50;1.80;;;1.20;;
70953;SDS011;58618;47.490;8.736;2023-04-07T05:55:37;3.00;;;1.58;;
70953;SDS011;58618;47.490;8.736;2023-04-07T05:58:24;3.88;;;1.83;;
70953;SDS011;58618;47.490;8.736;2023-04-07T06:01:14;3.83;;;1.45;;
70953;SDS011;58618;47.490;8.736;2023-04-07T06:04:01;2.65;;;1.30;;
70953;SDS011;58618;47.490;8.736;2023-04-07T06:06:49;3.13;;;1.67;;
70953;SDS011;58618;47.490;8.736;2023-04-07T06:09:37;2.22;;;1.35;;
70953;SDS011;58618;47.490;8.736;2023-04-07T06:12:24;1.75;;;1.05;;
70953;SDS011;58618;47.490;8.736;2023-04-07T06:15:12;1.95;;;1.58;;
70953;SDS011;58618;47.490;8.736;2023-04-07T06:18:00;2.63;;;1.60;;
70953;SDS011;58618;47.490;8.736;2023-04-07T06:20:48;2.73;;;1.70;;
70953;SDS011;58618;47.490;8.736;2023-04-07T06:23:35;3.63;;;1.42;;
70953;SDS011;58618;47.490;8.736;2023-04-07T06:26:23;2.42;;;1.30;;
70953;SDS011;58618;47.490;8.736;2023-04-07T06:29:13;2.72;;;1.58;;
70953;SDS011;58618;47.490;8.736;2023-04-07T06:32:06;3.40;;;1.50;;
70953;SDS011;58618;47.490;8.736;2023-04-07T06:35:13;2.17;;;1.40;;
70953;SDS011;58618;47.490;8.736;2023-04-07T06:38:00;2.45;;;1.52;;
70953;SDS011;58618;47.490;8.736;2023-04-07T06:40:48;2.80;;;1.67;;
70953;SDS011;58618;47.490;8.736;2023-04-07T06:43:35;3.70;;;2.20;;
70953;SDS011;58618;47.490;8.736;2023-04-07T06:46:23;2.90;;;1.60;;
70953;SDS011;58618;47.490;8.736;2023-04-07T06:49:11;2.57;;;1.50;;
70953;SDS011;58618;47.490;8.736;2023-04-07T06:52:00;3.35;;;1.77;;
70953;SDS011;58618;47.490;8.736;2023-04-07T06:54:48;5.07;;;2.67;;
70953;SDS011;58618;47.490;8.736;2023-04-07T06:57:35;2.42;;;1.75;;
70953;SDS011;58618;47.490;8.736;2023-04-07T07:00:23;5.05;;;1.92;;
70953;SDS011;58618;47.490;8.736;2023-04-07T07:03:12;4.40;;;2.20;;
70953;SDS011;58618;47.490;8.736;2023-04-07T07:06:08;3.08;;;2.00;;
70953;SDS011;58618;47.490;8.736;2023-04-07T07:08:57;5.53;;;2.00;;
70953;SDS011;58618;47.490;8.736;2023-04-07T07:11:45;4.78;;;2.55;;
70953;SDS011;58618;47.490;8.736;2023-04-07T07:14:32;3.53;;;2.38;;
70953;SDS011;58618;47.490;8.736;2023-04-07T07:17:20;3.63;;;2.20;;
70953;SDS011;58618;47.490;8.736;2023-04-07T07:20:08;5.57;;;2.60;;
70953;SDS011;58618;47.490;8.736;2023-04-07T07:22:56;4.35;;;2.42;;
70953;SDS011;58618;47.490;8.736;2023-04-07T07:25:46;4.78;;;2.55;;
70953;SDS011;58618;47.490;8.736;2023-04-07T07:28:33;3.13;;;2.10;;
70953;SDS011;58618;47.490;8.736;2023-04-07T07:31:20;5.90;;;2.73;;
70953;SDS011;58618;47.490;8.736;2023-04-07T07:34:08;4.35;;;2.63;;
70953;SDS011;58618;47.490;8.736;2023-04-07T07:36:56;4.10;;;2.35;;
70953;SDS011;58618;47.490;8.736;2023-04-07T07:39:44;4.47;;;2.28;;
70953;SDS011;58618;47.490;8.736;2023-04-07T07:42:33;5.13;;;2.65;;
70953;SDS011;58618;47.490;8.736;2023-04-07T07:45:21;4.57;;;2.63;;
70953;SDS011;58618;47.490;8.736;2023-04-07T07:48:08;4.38;;;2.45;;
70953;SDS011;58618;47.490;8.736;2023-04-07T07:50:56;3.53;;;2.28;;
70953;SDS011;58618;47.490;8.736;2023-04-07T07:53:43;4.38;;;2.35;;
70953;SDS011;58618;47.490;8.736;2023-04-07T07:56:31;4.93;;;2.67;;
70953;SDS011;58618;47.490;8.736;2023-04-07T07:59:20;5.57;;;2.73;;
70953;SDS011;58618;47.490;8.736;2023-04-07T08:02:07;4.20;;;2.63;;
70953;SDS011;58618;47.490;8.736;2023-04-07T08:04:55;6.32;;;3.20;;
70953;SDS011;58618;47.490;8.736;2023-04-07T08:07:43;4.60;;;2.70;;
70953;SDS011;58618;47.490;8.736;2023-04-07T08:10:34;4.53;;;2.70;;
70953;SDS011;58618;47.490;8.736;2023-04-07T08:13:21;4.30;;;2.40;;
70953;SDS011;58618;47.490;8.736;2023-04-07T08:16:10;5.22;;;2.58;;
70953;SDS011;58618;47.490;8.736;2023-04-07T08:18:57;8.68;;;3.00;;
70953;SDS011;58618;47.490;8.736;2023-04-07T08:21:45;6.05;;;2.55;;
70953;SDS011;58618;47.490;8.736;2023-04-07T08:24:32;4.05;;;2.45;;
70953;SDS011;58618;47.490;8.736;2023-04-07T08:27:20;6.67;;;2.00;;
70953;SDS011;58618;47.490;8.736;2023-04-07T08:30:08;6.22;;;3.00;;
70953;SDS011;58618;47.490;8.736;2023-04-07T08:32:57;4.05;;;2.50;;
70953;SDS011;58618;47.490;8.736;2023-04-07T08:35:44;3.72;;;2.55;;
70953;SDS011;58618;47.490;8.736;2023-04-07T08:38:32;4.93;;;2.70;;
70953;SDS011;58618;47.490;8.736;2023-04-07T08:41:20;6.13;;;2.93;;
70953;SDS011;58618;47.490;8.736;2023-04-07T08:44:13;6.47;;;2.83;;
70953;SDS011;58618;47.490;8.736;2023-04-07T08:47:01;5.30;;;2.63;;
70953;SDS011;58618;47.490;8.736;2023-04-07T08:49:54;4.40;;;2.63;;
70953;SDS011;58618;47.490;8.736;2023-04-07T08:52:49;5.90;;;3.10;;
70953;SDS011;58618;47.490;8.736;2023-04-07T08:55:38;5.50;;;3.00;;
70953;SDS011;58618;47.490;8.736;2023-04-07T08:58:26;4.50;;;2.90;;
70953;SDS011;58618;47.490;8.736;2023-04-07T09:01:14;4.57;;;3.15;;
70953;SDS011;58618;47.490;8.736;2023-04-07T09:04:02;4.13;;;2.40;;
70953;SDS011;58618;47.490;8.736;2023-04-07T09:06:52;5.00;;;3.00;;
70953;SDS011;58618;47.490;8.736;2023-04-07T09:09:39;4.87;;;2.70;;
70953;SDS011;58618;47.490;8.736;2023-04-07T09:12:27;3.80;;;2.22;;
70953;SDS011;58618;47.490;8.736;2023-04-07T09:15:15;4.65;;;2.63;;
70953;SDS011;58618;47.490;8.736;2023-04-07T09:18:03;6.03;;;2.97;;
70953;SDS011;58618;47.490;8.736;2023-04-07T09:20:58;3.90;;;2.70;;
70953;SDS011;58618;47.490;8.736;2023-04-07T09:23:48;3.77;;;2.53;;
70953;SDS011;58618;47.490;8.736;2023-04-07T09:26:36;4.25;;;2.85;;
70953;SDS011;58618;47.490;8.736;2023-04-07T09:29:23;5.28;;;3.03;;
70953;SDS011;58618;47.490;8.736;2023-04-07T09:32:10;4.90;;;2.90;;
70953;SDS011;58618;47.490;8.736;2023-04-07T09:34:59;5.75;;;3.13;;
70953;SDS011;58618;47.490;8.736;2023-04-07T09:37:50;4.20;;;2.60;;
70953;SDS011;58618;47.490;8.736;2023-04-07T09:40:49;5.95;;;2.92;;
70953;SDS011;58618;47.490;8.736;2023-04-07T09:43:37;4.55;;;2.50;;
70953;SDS011;58618;47.490;8.736;2023-04-07T09:46:26;4.32;;;2.60;;
70953;SDS011;58618;47.490;8.736;2023-04-07T09:49:14;3.40;;;2.13;;
70953;SDS011;58618;47.490;8.736;2023-04-07T09:52:02;3.50;;;2.23;;
70953;SDS011;58618;47.490;8.736;2023-04-07T09:54:52;4.78;;;2.60;;
70953;SDS011;58618;47.490;8.736;2023-04-07T09:57:42;4.82;;;2.47;;
70953;SDS011;58618;47.490;8.736;2023-04-07T10:00:31;4.80;;;2.47;;
70953;SDS011;58618;47.490;8.736;2023-04-07T10:03:18;4.03;;;2.50;;
70953;SDS011;58618;47.490;8.736;2023-04-07T10:06:06;5.37;;;2.77;;
70953;SDS011;58618;47.490;8.736;2023-04-07T10:08:53;4.40;;;2.55;;
70953;SDS011;58618;47.490;8.736;2023-04-07T10:11:40;3.33;;;2.30;;
70953;SDS011;58618;47.490;8.736;2023-04-07T10:14:30;4.78;;;2.60;;
70953;SDS011;58618;47.490;8.736;2023-04-07T10:17:18;3.83;;;2.58;;
70953;SDS011;58618;47.490;8.736;2023-04-07T10:20:06;3.83;;;2.23;;
70953;SDS011;58618;47.490;8.736;2023-04-07T10:22:57;3.92;;;2.47;;
70953;SDS011;58618;47.490;8.736;2023-04-07T10:25:54;3.45;;;2.33;;
70953;SDS011;58618;47.490;8.736;2023-04-07T10:28:45;2.53;;;1.92;;
70953;SDS011;58618;47.490;8.736;2023-04-07T10:31:38;3.10;;;2.47;;
70953;SDS011;58618;47.490;8.736;2023-04-07T10:38:08;3.15;;;2.00;;
70953;SDS011;58618;47.490;8.736;2023-04-07T10:40:58;2.72;;;2.05;;
70953;SDS011;58618;47.490;8.736;2023-04-07T10:43:46;3.58;;;2.17;;
70953;SDS011;58618;47.490;8.736;2023-04-07T10:50:13;4.87;;;2.07;;
70953;SDS011;58618;47.490;8.736;2023-04-07T10:53:06;3.33;;;1.73;;
70953;SDS011;58618;47.490;8.736;2023-04-07T10:55:54;2.10;;;1.75;;
70953;SDS011;58618;47.490;8.736;2023-04-07T10:58:42;3.10;;;2.20;;
70953;SDS011;58618;47.490;8.736;2023-04-07T11:01:30;3.35;;;2.17;;
70953;SDS011;58618;47.490;8.736;2023-04-07T11:04:20;3.73;;;2.23;;
70953;SDS011;58618;47.490;8.736;2023-04-07T11:07:08;3.00;;;1.73;;
70953;SDS011;58618;47.490;8.736;2023-04-07T11:10:07;3.80;;;1.98;;
70953;SDS011;58618;47.490;8.736;2023-04-07T11:13:02;2.90;;;1.70;;
70953;SDS011;58618;47.490;8.736;2023-04-07T11:15:51;3.60;;;2.40;;
70953;SDS011;58618;47.490;8.736;2023-04-07T11:18:39;2.13;;;1.60;;
70953;SDS011;58618;47.490;8.736;2023-04-07T11:21:28;2.55;;;1.77;;
70953;SDS011;58618;47.490;8.736;2023-04-07T11:24:31;2.88;;;1.90;;
70953;SDS011;58618;47.490;8.736;2023-04-07T11:27:18;2.15;;;1.45;;
70953;SDS011;58618;47.490;8.736;2023-04-07T11:30:06;2.05;;;1.60;;
70953;SDS011;58618;47.490;8.736;2023-04-07T11:32:55;2.50;;;1.60;;
70953;SDS011;58618;47.490;8.736;2023-04-07T11:35:50;2.08;;;1.58;;
70953;SDS011;58618;47.490;8.736;2023-04-07T11:38:41;2.65;;;1.50;;
70953;SDS011;58618;47.490;8.736;2023-04-07T11:41:31;2.03;;;1.40;;
70953;SDS011;58618;47.490;8.736;2023-04-07T11:44:20;2.63;;;1.60;;
70953;SDS011;58618;47.490;8.736;2023-04-07T11:47:07;2.03;;;1.37;;
70953;SDS011;58618;47.490;8.736;2023-04-07T11:49:54;2.90;;;1.75;;
70953;SDS011;58618;47.490;8.736;2023-04-07T11:52:42;2.53;;;1.83;;
70953;SDS011;58618;47.490;8.736;2023-04-07T11:55:32;2.15;;;1.60;;
70953;SDS011;58618;47.490;8.736;2023-04-07T11:58:19;2.85;;;1.60;;
70953;SDS011;58618;47.490;8.736;2023-04-07T12:01:07;2.33;;;1.47;;
70953;SDS011;58618;47.490;8.736;2023-04-07T12:03:55;2.40;;;1.63;;
70953;SDS011;58618;47.490;8.736;2023-04-07T12:06:45;1.92;;;1.35;;
70953;SDS011;58618;47.490;8.736;2023-04-07T12:09:33;2.40;;;1.60;;
70953;SDS011;58618;47.490;8.736;2023-04-07T12:12:27;2.05;;;1.58;;
70953;SDS011;58618;47.490;8.736;2023-04-07T12:15:15;1.97;;;1.53;;
70953;SDS011;58618;47.490;8.736;2023-04-07T12:18:03;2.30;;;1.70;;
70953;SDS011;58618;47.490;8.736;2023-04-07T12:20:50;3.20;;;1.40;;
70953;SDS011;58618;47.490;8.736;2023-04-07T12:23:38;2.33;;;1.67;;
70953;SDS011;58618;47.490;8.736;2023-04-07T12:26:25;2.50;;;1.70;;
70953;SDS011;58618;47.490;8.736;2023-04-07T12:29:15;2.53;;;1.60;;
70953;SDS011;58618;47.490;8.736;2023-04-07T12:32:04;1.58;;;1.23;;
70953;SDS011;58618;47.490;8.736;2023-04-07T12:34:52;2.05;;;1.52;;
70953;SDS011;58618;47.490;8.736;2023-04-07T12:37:39;2.45;;;1.65;;
70953;SDS011;58618;47.490;8.736;2023-04-07T12:40:27;2.92;;;1.75;;
70953;SDS011;58618;47.490;8.736;2023-04-07T12:43:14;2.20;;;1.50;;
70953;SDS011;58618;47.490;8.736;2023-04-07T12:46:03;1.67;;;1.17;;
70953;SDS011;58618;47.490;8.736;2023-04-07T12:48:50;2.13;;;1.50;;
70953;SDS011;58618;47.490;8.736;2023-04-07T12:51:38;3.05;;;1.40;;
70953;SDS011;58618;47.490;8.736;2023-04-07T12:54:26;2.45;;;1.50;;
70953;SDS011;58618;47.490;8.736;2023-04-07T12:57:13;1.63;;;1.27;;
70953;SDS011;58618;47.490;8.736;2023-04-07T13:00:00;2.08;;;1.20;;
70953;SDS011;58618;47.490;8.736;2023-04-07T13:02:49;2.95;;;1.40;;
70953;SDS011;58618;47.490;8.736;2023-04-07T13:05:37;2.60;;;1.67;;
70953;SDS011;58618;47.490;8.736;2023-04-07T13:08:25;1.73;;;1.20;;
70953;SDS011;58618;47.490;8.736;2023-04-07T13:11:13;1.83;;;1.37;;
70953;SDS011;58618;47.490;8.736;2023-04-07T13:14:00;1.60;;;1.20;;
70953;SDS011;58618;47.490;8.736;2023-04-07T13:16:47;1.92;;;1.30;;
70953;SDS011;58618;47.490;8.736;2023-04-07T13:19:36;1.48;;;1.02;;
70953;SDS011;58618;47.490;8.736;2023-04-07T13:22:24;1.48;;;1.20;;
70953;SDS011;58618;47.490;8.736;2023-04-07T13:25:12;1.23;;;1.03;;
70953;SDS011;58618;47.490;8.736;2023-04-07T13:28:00;2.05;;;1.40;;
70953;SDS011;58618;47.490;8.736;2023-04-07T13:30:47;1.20;;;1.00;;
70953;SDS011;58618;47.490;8.736;2023-04-07T13:33:35;1.73;;;1.08;;
70953;SDS011;58618;47.490;8.736;2023-04-07T13:36:24;1.38;;;1.00;;
70953;SDS011;58618;47.490;8.736;2023-04-07T13:39:13;1.37;;;0.90;;
70953;SDS011;58618;47.490;8.736;2023-04-07T13:42:00;1.73;;;1.02;;
70953;SDS011;58618;47.490;8.736;2023-04-07T13:44:47;1.55;;;1.00;;
70953;SDS011;58618;47.490;8.736;2023-04-07T13:47:35;1.40;;;0.90;;
70953;SDS011;58618;47.490;8.736;2023-04-07T13:50:23;2.05;;;1.25;;
70953;SDS011;58618;47.490;8.736;2023-04-07T13:53:12;1.50;;;1.07;;
70953;SDS011;58618;47.490;8.736;2023-04-07T13:55:59;2.47;;;1.02;;
70953;SDS011;58618;47.490;8.736;2023-04-07T13:58:48;1.90;;;1.30;;
70953;SDS011;58618;47.490;8.736;2023-04-07T14:01:36;1.65;;;1.13;;
70953;SDS011;58618;47.490;8.736;2023-04-07T14:04:23;2.10;;;1.48;;
70953;SDS011;58618;47.490;8.736;2023-04-07T14:07:12;1.73;;;1.30;;
70953;SDS011;58618;47.490;8.736;2023-04-07T14:10:01;1.77;;;1.30;;
70953;SDS011;58618;47.490;8.736;2023-04-07T14:12:48;1.50;;;1.10;;
70953;SDS011;58618;47.490;8.736;2023-04-07T14:15:35;3.55;;;1.20;;
70953;SDS011;58618;47.490;8.736;2023-04-07T14:18:23;2.05;;;1.33;;
70953;SDS011;58618;47.490;8.736;2023-04-07T14:21:12;1.87;;;1.13;;
70953;SDS011;58618;47.490;8.736;2023-04-07T14:24:09;3.72;;;1.33;;
70953;SDS011;58618;47.490;8.736;2023-04-07T14:27:03;1.90;;;1.17;;
70953;SDS011;58618;47.490;8.736;2023-04-07T14:29:50;1.90;;;1.20;;
70953;SDS011;58618;47.490;8.736;2023-04-07T14:32:40;2.13;;;1.10;;
70953;SDS011;58618;47.490;8.736;2023-04-07T14:35:32;2.50;;;1.30;;
70953;SDS011;58618;47.490;8.736;2023-04-07T14:38:22;1.90;;;1.15;;
70953;SDS011;58618;47.490;8.736;2023-04-07T14:41:10;1.65;;;1.05;;
70953;SDS011;58618;47.490;8.736;2023-04-07T14:44:04;1.48;;;1.10;;
70953;SDS011;58618;47.490;8.736;2023-04-07T14:46:55;1.70;;;1.15;;
70953;SDS011;58618;47.490;8.736;2023-04-07T14:49:42;2.17;;;1.27;;
70953;SDS011;58618;47.490;8.736;2023-04-07T14:52:31;1.67;;;1.10;;
70953;SDS011;58618;47.490;8.736;2023-04-07T14:55:19;1.42;;;1.17;;
70953;SDS011;58618;47.490;8.736;2023-04-07T14:58:08;1.67;;;1.00;;
70953;SDS011;58618;47.490;8.736;2023-04-07T15:01:08;1.52;;;1.02;;
70953;SDS011;58618;47.490;8.736;2023-04-07T15:03:56;1.57;;;1.20;;
70953;SDS011;58618;47.490;8.736;2023-04-07T15:06:45;1.52;;;0.90;;
70953;SDS011;58618;47.490;8.736;2023-04-07T15:09:32;1.88;;;0.90;;
70953;SDS011;58618;47.490;8.736;2023-04-07T15:12:20;1.63;;;1.00;;
70953;SDS011;58618;47.490;8.736;2023-04-07T15:15:07;2.05;;;1.25;;
70953;SDS011;58618;47.490;8.736;2023-04-07T15:17:56;1.30;;;1.20;;
70953;SDS011;58618;47.490;8.736;2023-04-07T15:20:43;2.28;;;1.20;;
70953;SDS011;58618;47.490;8.736;2023-04-07T15:23:31;1.73;;;1.20;;
70953;SDS011;58618;47.490;8.736;2023-04-07T15:26:19;1.88;;;1.10;;
70953;SDS011;58618;47.490;8.736;2023-04-07T15:29:06;2.30;;;1.38;;
70953;SDS011;58618;47.490;8.736;2023-04-07T15:31:54;1.90;;;1.27;;
70953;SDS011;58618;47.490;8.736;2023-04-07T15:34:43;1.77;;;1.05;;
70953;SDS011;58618;47.490;8.736;2023-04-07T15:37:32;1.73;;;1.30;;
70953;SDS011;58618;47.490;8.736;2023-04-07T15:40:19;1.65;;;1.10;;
70953;SDS011;58618;47.490;8.736;2023-04-07T15:43:07;2.45;;;1.10;;
70953;SDS011;58618;47.490;8.736;2023-04-07T15:45:55;1.33;;;1.00;;
70953;SDS011;58618;47.490;8.736;2023-04-07T15:48:43;1.60;;;1.20;;
70953;SDS011;58618;47.490;8.736;2023-04-07T15:51:32;1.95;;;1.15;;
70953;SDS011;58618;47.490;8.736;2023-04-07T15:54:19;1.60;;;1.13;;
70953;SDS011;58618;47.490;8.736;2023-04-07T15:57:06;1.83;;;1.13;;
70953;SDS011;58618;47.490;8.736;2023-04-07T15:59:54;1.97;;;1.20;;
70953;SDS011;58618;47.490;8.736;2023-04-07T16:02:41;1.95;;;1.40;;
70953;SDS011;58618;47.490;8.736;2023-04-07T16:05:32;1.40;;;1.10;;
70953;SDS011;58618;47.490;8.736;2023-04-07T16:08:20;1.33;;;0.93;;
70953;SDS011;58618;47.490;8.736;2023-04-07T16:11:08;1.67;;;1.02;;
70953;SDS011;58618;47.490;8.736;2023-04-07T16:13:55;1.40;;;1.00;;
70953;SDS011;58618;47.490;8.736;2023-04-07T16:16:43;2.42;;;1.00;;
70953;SDS011;58618;47.490;8.736;2023-04-07T16:19:31;1.00;;;0.90;;
70953;SDS011;58618;47.490;8.736;2023-04-07T16:22:18;1.17;;;0.90;;
70953;SDS011;58618;47.490;8.736;2023-04-07T16:25:07;1.50;;;1.10;;
70953;SDS011;58618;47.490;8.736;2023-04-07T16:27:55;1.40;;;1.20;;
70953;SDS011;58618;47.490;8.736;2023-04-07T16:30:42;1.55;;;1.10;;
70953;SDS011;58618;47.490;8.736;2023-04-07T16:33:30;1.73;;;1.05;;
70953;SDS011;58618;47.490;8.736;2023-04-07T16:36:17;2.00;;;1.20;;
70953;SDS011;58618;47.490;8.736;2023-04-07T16:39:05;1.33;;;1.05;;
70953;SDS011;58618;47.490;8.736;2023-04-07T16:41:53;1.53;;;1.20;;
70953;SDS011;58618;47.490;8.736;2023-04-07T16:44:41;2.28;;;1.27;;
70953;SDS011;58618;47.490;8.736;2023-04-07T16:47:28;1.48;;;1.05;;
70953;SDS011;58618;47.490;8.736;2023-04-07T16:50:17;1.50;;;0.95;;
70953;SDS011;58618;47.490;8.736;2023-04-07T16:53:04;1.05;;;0.90;;
70953;SDS011;58618;47.490;8.736;2023-04-07T16:55:52;1.10;;;0.90;;
70953;SDS011;58618;47.490;8.736;2023-04-07T16:58:41;1.27;;;1.00;;
70953;SDS011;58618;47.490;8.736;2023-04-07T17:01:28;1.60;;;1.30;;
70953;SDS011;58618;47.490;8.736;2023-04-07T17:04:15;1.50;;;1.02;;